Time;durP1;ratioP1;P1;durP2;ratioP2;P2;SDS_P1;SDS_P2;PMS_P1;PMS_P2;Temp;Humidity;BMP_temperature;BMP_pressure;BME280_temperature;BME280_humidity;BME280_pressure;Samples;Min_cycle;Max_cycle;Signal;HPM_P1;HPM_P2
2022/05/05 00:00:24;;;;;;;26.70;10.80;;;;;;;9.13;50.89;99139.45;109052;1280;22315;-84
2022/05/05 00:03:04;;;;;;;21.80;10.20;;;;;;;9.09;51.08;99137.80;109095;1281;23346;-83
2022/05/05 00:05:31;;;;;;;26.60;10.40;;;;;;;9.05;51.24;99135.61;108591;1281;22347;-84
2022/05/05 00:07:58;;;;;;;23.60;9.80;;;;;;;9.01;51.01;99132.45;108972;1280;22410;-84
2022/05/05 00:16:05;;;;;;;23.40;10.10;;;;;;;8.93;51.54;99129.55;108614;1281;22410;-84
2022/05/05 00:18:35;;;;;;;25.00;9.20;;;;;;;8.95;51.55;99130.71;109026;1280;23060;-84
2022/05/05 00:21:02;;;;;;;24.80;10.20;;;;;;;8.95;51.40;99124.17;108981;1281;22226;-84
2022/05/05 00:23:29;;;;;;;23.50;10.50;;;;;;;8.99;51.71;99123.18;109247;1281;22548;-84
2022/05/05 00:25:59;;;;;;;21.80;10.20;;;;;;;9.08;52.05;99113.92;108944;1279;22673;-83
2022/05/05 00:28:26;;;;;;;18.30;9.60;;;;;;;9.11;51.85;99115.85;108733;1281;22473;-84
2022/05/05 00:30:53;;;;;;;25.40;10.20;;;;;;;9.11;51.78;99109.79;108974;1281;22462;-84
2022/05/05 00:33:26;;;;;;;33.60;12.70;;;;;;;9.09;51.69;99111.16;108968;1281;22420;-84
2022/05/05 00:35:53;;;;;;;27.50;12.40;;;;;;;9.04;51.77;99111.31;108961;1281;23046;-84
2022/05/05 00:38:23;;;;;;;24.60;10.10;;;;;;;8.97;51.78;99110.17;108959;1279;22617;-84
2022/05/05 00:40:52;;;;;;;18.70;9.00;;;;;;;8.88;51.82;99108.77;109020;1280;22479;-83
2022/05/05 00:43:19;;;;;;;16.80;7.90;;;;;;;8.80;51.86;99104.14;109033;1280;22172;-83
2022/05/05 00:45:46;;;;;;;17.10;7.50;;;;;;;8.78;52.21;99108.36;108943;1280;22401;-83
2022/05/05 00:48:14;;;;;;;15.20;6.20;;;;;;;8.84;52.24;99103.20;109247;1280;23268;-83
2022/05/05 00:50:42;;;;;;;12.50;5.50;;;;;;;8.96;52.21;99101.74;108955;1281;22630;-83
2022/05/05 00:53:30;;;;;;;14.70;6.30;;;;;;;9.08;52.23;99095.23;109042;1281;22424;-83
2022/05/05 00:56:10;;;;;;;13.90;5.90;;;;;;;9.27;52.10;99096.32;108894;1281;22608;-83
2022/05/05 00:58:58;;;;;;;12.30;5.80;;;;;;;9.41;52.18;99089.35;109247;1280;22411;-83
2022/05/05 01:01:27;;;;;;;13.80;6.30;;;;;;;9.52;52.18;99087.53;108872;1281;22421;-83
2022/05/05 01:03:54;;;;;;;12.00;6.40;;;;;;;9.62;52.01;99088.39;108937;1281;22919;-84
2022/05/05 01:06:25;;;;;;;14.30;5.90;;;;;;;9.69;52.11;99081.22;108962;1281;22489;-85
2022/05/05 01:08:54;;;;;;;14.60;6.50;;;;;;;9.76;52.07;99089.10;108802;1281;22497;-84
2022/05/05 01:11:24;;;;;;;14.30;6.50;;;;;;;9.78;52.04;99086.79;108978;1280;22875;-83
2022/05/05 01:13:52;;;;;;;12.70;7.10;;;;;;;9.77;52.22;99082.96;108975;1281;22332;-83
2022/05/05 01:16:21;;;;;;;13.30;5.50;;;;;;;9.76;52.04;99080.35;108794;1281;22508;-84
2022/05/05 01:18:51;;;;;;;14.00;6.50;;;;;;;9.80;52.10;99083.33;108921;1280;22369;-83
2022/05/05 01:21:19;;;;;;;12.40;6.10;;;;;;;9.84;52.28;99085.85;108942;1281;22417;-84
2022/05/05 01:23:46;;;;;;;12.50;6.50;;;;;;;9.90;52.11;99085.46;108952;1281;22409;-83
2022/05/05 01:29:04;;;;;;;13.50;6.40;;;;;;;10.00;52.08;99091.17;108994;1281;22965;-84
2022/05/05 01:31:31;;;;;;;16.30;5.60;;;;;;;10.08;52.06;99105.05;108760;1281;22478;-84
2022/05/05 01:33:58;;;;;;;14.70;5.90;;;;;;;10.10;52.00;99106.11;108879;1281;22442;-84
2022/05/05 01:36:26;;;;;;;16.90;6.40;;;;;;;10.11;51.98;99102.19;108792;1281;22461;-83
2022/05/05 01:38:53;;;;;;;13.00;6.60;;;;;;;10.12;52.06;99108.11;108969;1281;22411;-84
2022/05/05 01:41:21;;;;;;;12.70;5.80;;;;;;;10.13;52.22;99108.40;108917;1281;22429;-84
2022/05/05 01:43:48;;;;;;;15.10;6.60;;;;;;;10.14;52.17;99109.08;109273;1280;22350;-83
2022/05/05 01:46:15;;;;;;;11.90;6.40;;;;;;;10.12;52.27;99107.77;108949;1281;22443;-83
2022/05/05 01:48:42;;;;;;;14.50;6.60;;;;;;;10.13;52.31;99107.33;108908;1281;22448;-83
2022/05/05 01:51:09;;;;;;;13.00;7.00;;;;;;;10.22;52.49;99103.52;109115;1281;22397;-84
2022/05/05 01:53:36;;;;;;;13.40;6.60;;;;;;;10.23;52.52;99106.45;108775;1281;22460;-84
2022/05/05 01:56:08;;;;;;;15.30;6.90;;;;;;;10.21;52.26;99108.57;109072;1281;22349;-84
2022/05/05 01:58:36;;;;;;;15.40;8.30;;;;;;;10.07;52.35;99113.06;108698;1281;22388;-84
2022/05/05 02:01:03;;;;;;;12.90;7.10;;;;;;;9.92;52.48;99109.81;108796;1281;22456;-84
2022/05/05 02:03:30;;;;;;;13.00;7.40;;;;;;;9.83;52.62;99112.80;108777;1281;22364;-84
2022/05/05 02:05:57;;;;;;;14.20;7.00;;;;;;;9.70;52.49;99111.18;108833;1281;22492;-84
2022/05/05 02:08:24;;;;;;;12.00;6.90;;;;;;;9.62;52.57;99120.45;109091;1280;22446;-85
2022/05/05 02:10:51;;;;;;;14.60;6.90;;;;;;;9.52;52.79;99117.17;108762;1281;22157;-84
2022/05/05 02:13:19;;;;;;;16.70;7.90;;;;;;;9.42;52.91;99121.56;108608;1281;23369;-84
2022/05/05 02:15:46;;;;;;;15.30;7.30;;;;;;;9.33;52.99;99115.27;108788;1281;22382;-84
2022/05/05 02:18:13;;;;;;;16.40;7.80;;;;;;;9.27;53.03;99118.70;109093;1280;22410;-84
2022/05/05 02:20:41;;;;;;;17.10;8.20;;;;;;;9.18;53.10;99112.67;108692;1281;22399;-84
2022/05/05 02:23:08;;;;;;;15.50;8.50;;;;;;;9.10;53.41;99113.54;108672;1281;22520;-84
2022/05/05 02:25:36;;;;;;;16.80;8.60;;;;;;;9.02;53.11;99108.96;108595;1280;22432;-84
2022/05/05 02:28:04;;;;;;;16.00;7.70;;;;;;;8.92;53.12;99114.74;108793;1281;22357;-85
2022/05/05 02:30:31;;;;;;;15.20;8.00;;;;;;;8.80;53.36;99114.80;108717;1281;22618;-84
2022/05/05 02:33:00;;;;;;;17.50;8.10;;;;;;;8.66;53.40;99111.79;109257;1279;22461;-84
2022/05/05 02:35:27;;;;;;;16.90;8.10;;;;;;;8.59;53.61;99107.63;108745;1281;22359;-84
2022/05/05 02:40:40;;;;;;;19.40;8.70;;;;;;;8.48;53.66;99107.63;109230;1279;22430;-84
2022/05/05 02:43:06;;;;;;;18.00;7.90;;;;;;;8.48;53.99;99104.09;108985;1279;22941;-84
2022/05/05 02:45:34;;;;;;;15.90;8.10;;;;;;;8.44;53.99;99107.36;108813;1280;22195;-84
2022/05/05 02:48:01;;;;;;;17.20;7.60;;;;;;;8.35;54.11;99103.58;108992;1281;22471;-84
2022/05/05 02:50:28;;;;;;;18.10;7.20;;;;;;;8.30;54.06;99105.13;109249;1279;22268;-84
2022/05/05 02:52:55;;;;;;;15.00;7.60;;;;;;;8.23;54.38;99110.21;109297;1279;22453;-84
2022/05/05 02:55:23;;;;;;;16.20;8.60;;;;;;;8.23;54.64;99120.13;108714;1281;22550;-84
2022/05/05 02:57:50;;;;;;;19.20;9.80;;;;;;;8.21;54.54;99116.38;108781;1281;22447;-84
2022/05/05 03:00:18;;;;;;;20.30;9.30;;;;;;;8.19;54.64;99122.14;109245;1280;23092;-84
2022/05/05 03:02:45;;;;;;;19.30;8.40;;;;;;;8.12;54.46;99117.09;108781;1281;22991;-85
2022/05/05 03:05:15;;;;;;;18.00;8.60;;;;;;;8.12;54.53;99123.80;109245;1279;22461;-84
2022/05/05 03:07:42;;;;;;;17.60;7.90;;;;;;;8.12;54.56;99120.41;109275;1279;22401;-84
2022/05/05 03:10:11;;;;;;;15.80;8.20;;;;;;;8.17;54.71;99121.75;108991;1280;23213;-83
2022/05/05 03:12:38;;;;;;;15.40;8.00;;;;;;;8.23;54.70;99121.16;108967;1281;22413;-84
2022/05/05 03:15:06;;;;;;;26.10;8.40;;;;;;;8.28;54.77;99127.83;108986;1281;23210;-84
2022/05/05 03:17:34;;;;;;;18.00;8.70;;;;;;;8.28;54.84;99128.89;108741;1281;22713;-84
2022/05/05 03:20:02;;;;;;;22.50;8.70;;;;;;;8.27;54.88;99132.99;108935;1281;22656;-84
2022/05/05 03:22:28;;;;;;;25.60;8.90;;;;;;;8.24;54.73;99138.00;108853;1280;22449;-85
2022/05/05 03:24:55;;;;;;;22.10;9.30;;;;;;;8.18;54.82;99141.38;109007;1281;22471;-84
2022/05/05 03:27:35;;;;;;;22.00;10.10;;;;;;;8.17;55.07;99143.59;108734;1280;22501;-84
2022/05/05 03:30:02;;;;;;;20.80;10.00;;;;;;;8.14;55.01;99142.46;108816;1281;22367;-84
2022/05/05 03:32:32;;;;;;;25.30;10.10;;;;;;;8.18;55.36;99147.36;109218;1280;22189;-84
2022/05/05 03:35:01;;;;;;;19.10;8.70;;;;;;;8.16;55.36;99146.64;108758;1281;22443;-83
2022/05/05 03:37:30;;;;;;;21.00;10.40;;;;;;;8.17;55.81;99147.67;108768;1281;22494;-84
2022/05/05 03:39:57;;;;;;;19.50;9.70;;;;;;;8.22;55.56;99144.83;109018;1281;22364;-84
2022/05/05 03:42:24;;;;;;;18.40;9.60;;;;;;;8.34;55.81;99147.11;108954;1281;22512;-85
2022/05/05 03:44:51;;;;;;;18.70;9.70;;;;;;;8.42;55.62;99142.09;108729;1281;22973;-85
2022/05/05 03:47:17;;;;;;;20.30;9.60;;;;;;;8.53;55.42;99146.69;109099;1280;22410;-84
2022/05/05 03:49:45;;;;;;;19.00;10.00;;;;;;;8.66;55.65;99146.95;108712;1281;22355;-84
2022/05/05 03:52:12;;;;;;;25.30;10.40;;;;;;;8.78;55.74;99147.58;108685;1281;22397;-84
2022/05/05 03:54:41;;;;;;;21.80;9.90;;;;;;;8.91;55.46;99146.77;108780;1281;22421;-84
2022/05/05 03:57:08;;;;;;;28.10;10.00;;;;;;;9.04;55.48;99149.17;108977;1281;22513;-84
2022/05/05 03:59:35;;;;;;;23.00;9.70;;;;;;;9.10;55.41;99152.27;108973;1281;22469;-84
2022/05/05 04:02:11;;;;;;;46.30;18.70;;;;;;;9.16;55.29;99151.55;108994;1280;22349;-84
2022/05/05 04:04:39;;;;;;;33.00;14.80;;;;;;;9.17;55.21;99152.73;108901;1281;22380;-84
2022/05/05 04:07:05;;;;;;;28.00;12.60;;;;;;;9.13;55.00;99155.63;108701;1281;22413;-84
2022/05/05 04:09:32;;;;;;;30.90;14.20;;;;;;;9.08;55.20;99153.83;108800;1281;22525;-85
2022/05/05 04:12:00;;;;;;;29.10;12.90;;;;;;;9.18;55.39;99155.65;109216;1281;22466;-84
2022/05/05 04:14:27;;;;;;;25.00;11.90;;;;;;;9.25;55.44;99154.70;108728;1281;23124;-85
2022/05/05 04:16:54;;;;;;;27.10;12.00;;;;;;;9.25;55.34;99156.86;109068;1281;22458;-85
2022/05/05 04:19:21;;;;;;;25.20;11.30;;;;;;;9.28;55.43;99161.41;108758;1281;22512;-85
2022/05/05 04:21:48;;;;;;;24.20;11.30;;;;;;;9.36;55.54;99163.02;108703;1281;22268;-84
2022/05/05 04:24:15;;;;;;;25.00;10.40;;;;;;;9.44;55.72;99159.63;109220;1280;22449;-84
2022/05/05 04:26:46;;;;;;;26.70;11.40;;;;;;;9.56;55.45;99164.57;108917;1281;22532;-85
2022/05/05 04:29:13;;;;;;;25.70;11.60;;;;;;;9.70;55.56;99159.52;109031;1280;22219;-84
2022/05/05 04:31:43;;;;;;;22.70;11.90;;;;;;;9.95;55.64;99163.35;109204;1280;23111;-85
2022/05/05 04:34:10;;;;;;;24.00;12.10;;;;;;;10.13;55.83;99162.48;108802;1281;23283;-85
2022/05/05 04:36:37;;;;;;;24.10;12.10;;;;;;;10.31;55.68;99165.02;108755;1280;23147;-85
2022/05/05 04:39:05;;;;;;;25.60;12.60;;;;;;;10.46;55.65;99162.58;109021;1281;22452;-85
2022/05/05 04:41:32;;;;;;;26.80;13.00;;;;;;;10.62;55.70;99163.01;109241;1281;22407;-85
2022/05/05 04:43:59;;;;;;;23.20;12.30;;;;;;;10.85;55.50;99158.02;109004;1281;22451;-84
2022/05/05 04:46:27;;;;;;;26.30;13.10;;;;;;;11.09;55.28;99155.59;108562;1281;22191;-85
2022/05/05 04:48:54;;;;;;;21.30;11.30;;;;;;;11.31;55.18;99159.96;109197;1280;22433;-85
2022/05/05 04:51:20;;;;;;;20.00;10.60;;;;;;;11.54;54.92;99155.96;109202;1280;23133;-85
2022/05/05 04:53:48;;;;;;;19.70;10.60;;;;;;;11.77;54.82;99157.45;108945;1281;22188;-85
2022/05/05 04:56:15;;;;;;;28.70;11.20;;;;;;;12.01;54.84;99160.11;109051;1281;22170;-85
2022/05/05 04:58:42;;;;;;;24.10;11.40;;;;;;;12.21;54.61;99156.42;109207;1280;22499;-85
2022/05/05 05:01:09;;;;;;;33.80;12.40;;;;;;;12.42;54.63;99154.61;108987;1281;22608;-84
2022/05/05 05:03:39;;;;;;;34.40;12.00;;;;;;;12.69;54.65;99162.71;108591;1281;22415;-85
2022/05/05 05:06:09;;;;;;;25.60;11.20;;;;;;;13.09;54.84;99163.25;108730;1281;22476;-85
2022/05/05 05:08:38;;;;;;;22.40;10.90;;;;;;;13.39;54.50;99160.06;108741;1281;23102;-84
2022/05/05 05:11:06;;;;;;;24.40;10.90;;;;;;;13.60;54.32;99164.62;108739;1281;22191;-85
2022/05/05 05:13:32;;;;;;;23.70;10.50;;;;;;;13.76;54.36;99167.95;108778;1281;23140;-86
2022/05/05 05:16:00;;;;;;;23.80;11.20;;;;;;;14.00;54.23;99166.79;108761;1281;22508;-85
2022/05/05 05:18:27;;;;;;;21.20;10.30;;;;;;;14.25;54.16;99163.64;108700;1281;22498;-85
2022/05/05 05:20:54;;;;;;;18.50;10.20;;;;;;;14.42;53.98;99167.15;109090;1279;23175;-85
2022/05/05 05:23:22;;;;;;;20.10;10.10;;;;;;;14.55;54.14;99163.70;108739;1281;22558;-86
2022/05/05 05:25:49;;;;;;;19.90;9.60;;;;;;;14.84;54.04;99167.15;108757;1279;22511;-85
2022/05/05 05:28:17;;;;;;;16.50;10.00;;;;;;;15.06;53.98;99163.04;108760;1281;22481;-86
2022/05/05 05:30:45;;;;;;;19.00;9.60;;;;;;;15.16;53.67;99160.34;108817;1280;22235;-86
2022/05/05 05:33:12;;;;;;;19.10;10.50;;;;;;;15.22;53.57;99160.17;108763;1281;22290;-86
2022/05/05 05:35:39;;;;;;;19.00;9.90;;;;;;;15.36;53.79;99162.33;108982;1281;22438;-86
2022/05/05 05:38:07;;;;;;;19.50;10.20;;;;;;;15.58;53.72;99165.46;109057;1281;23009;-86
2022/05/05 05:40:35;;;;;;;20.50;10.50;;;;;;;15.74;53.56;99161.03;108782;1280;22410;-87
2022/05/05 05:43:08;;;;;;;19.70;10.80;;;;;;;15.96;53.66;99160.07;108723;1281;22614;-86
2022/05/05 05:45:38;;;;;;;20.00;10.80;;;;;;;16.35;53.92;99155.15;108752;1280;22512;-86
2022/05/05 05:48:06;;;;;;;18.90;10.60;;;;;;;16.76;53.80;99152.71;109044;1280;23135;-86
2022/05/05 05:50:34;;;;;;;16.50;9.30;;;;;;;17.13;53.53;99158.14;108984;1281;22390;-85
2022/05/05 05:53:01;;;;;;;16.00;8.50;;;;;;;17.47;53.54;99151.54;109031;1281;22448;-86
2022/05/05 05:55:28;;;;;;;15.10;8.20;;;;;;;17.76;53.30;99152.79;109195;1280;22425;-84
2022/05/05 05:57:55;;;;;;;16.50;8.40;;;;;;;17.89;53.06;99156.70;109050;1281;22412;-84
2022/05/05 06:00:21;;;;;;;18.70;8.40;;;;;;;17.93;52.99;99159.30;108865;1281;22565;-85
2022/05/05 06:05:34;;;;;;;15.50;8.20;;;;;;;17.94;52.74;99160.63;108789;1281;22369;-85
2022/05/05 06:08:02;;;;;;;14.60;8.20;;;;;;;17.92;53.00;99155.50;108615;1281;22425;-84
2022/05/05 06:10:31;;;;;;;13.20;7.70;;;;;;;18.19;53.19;99162.27;109098;1280;23202;-85
2022/05/05 06:12:58;;;;;;;20.20;8.60;;;;;;;18.39;53.20;99156.30;109013;1281;22688;-85
2022/05/05 06:15:25;;;;;;;22.40;8.40;;;;;;;18.64;52.98;99162.64;108757;1280;23150;-84
2022/05/05 06:17:52;;;;;;;22.80;9.10;;;;;;;18.80;53.01;99156.90;108981;1281;23457;-84
2022/05/05 06:20:19;;;;;;;20.60;9.00;;;;;;;18.95;52.76;99155.13;109043;1280;22450;-85
2022/05/05 06:22:47;;;;;;;15.60;8.10;;;;;;;18.94;52.43;99151.66;109027;1281;22181;-85
2022/05/05 06:25:14;;;;;;;16.20;8.50;;;;;;;18.94;52.40;99153.43;108773;1280;23205;-85
2022/05/05 06:27:41;;;;;;;15.90;8.80;;;;;;;19.05;52.54;99152.67;109004;1281;23068;-85
2022/05/05 06:30:14;;;;;;;15.80;8.50;;;;;;;19.05;52.48;99153.89;108963;1281;23094;-85
2022/05/05 06:32:41;;;;;;;15.60;8.00;;;;;;;19.16;52.44;99157.92;108713;1281;23134;-85
2022/05/05 06:35:09;;;;;;;13.80;8.00;;;;;;;19.30;52.33;99160.23;109092;1280;22344;-85
2022/05/05 06:37:36;;;;;;;14.00;7.20;;;;;;;19.57;52.38;99156.86;109012;1281;23090;-85
2022/05/05 06:40:07;;;;;;;14.60;7.10;;;;;;;19.89;52.30;99157.31;108999;1280;22605;-85
2022/05/05 06:42:33;;;;;;;11.40;6.90;;;;;;;20.05;52.36;99158.52;109029;1280;22410;-85
2022/05/05 06:45:01;;;;;;;13.00;7.50;;;;;;;20.10;52.17;99158.63;108742;1281;22414;-85
2022/05/05 06:47:29;;;;;;;15.70;7.00;;;;;;;20.12;52.30;99159.09;109006;1281;22374;-85
2022/05/05 06:49:55;;;;;;;17.80;7.20;;;;;;;20.18;52.22;99157.95;108748;1281;23014;-85
2022/05/05 06:52:23;;;;;;;10.70;6.10;;;;;;;20.29;52.33;99155.27;109018;1281;23342;-85
2022/05/05 06:54:50;;;;;;;12.00;6.60;;;;;;;20.52;52.24;99155.11;108731;1281;22638;-85
2022/05/05 06:57:17;;;;;;;11.70;7.00;;;;;;;20.72;52.12;99155.00;108746;1280;22491;-85
2022/05/05 06:59:46;;;;;;;13.20;6.70;;;;;;;20.97;51.94;99155.39;108992;1281;22375;-85
2022/05/05 07:02:13;;;;;;;11.60;6.90;;;;;;;21.22;51.93;99155.98;108757;1281;22672;-86
2022/05/05 07:07:26;;;;;;;13.70;6.70;;;;;;;21.69;51.18;99154.02;108832;1281;22364;-85
2022/05/05 07:12:38;;;;;;;11.80;6.60;;;;;;;22.22;51.29;99162.41;108991;1279;22964;-85
2022/05/05 07:15:07;;;;;;;12.90;6.30;;;;;;;22.34;50.90;99164.96;109006;1281;22374;-85
2022/05/05 07:17:34;;;;;;;13.50;6.40;;;;;;;22.21;50.12;99165.97;109178;1281;22525;-85
2022/05/05 07:20:01;;;;;;;14.10;6.70;;;;;;;21.96;50.58;99168.60;108745;1281;22444;-86
2022/05/05 07:22:28;;;;;;;12.70;6.50;;;;;;;22.05;50.57;99166.97;108735;1281;22355;-86
2022/05/05 07:24:55;;;;;;;15.20;6.00;;;;;;;22.27;51.18;99163.80;109001;1281;22409;-85
2022/05/05 07:27:22;;;;;;;15.80;6.40;;;;;;;22.66;51.00;99167.69;109157;1279;22655;-85
2022/05/05 07:29:49;;;;;;;11.40;6.60;;;;;;;22.88;50.69;99159.84;109213;1280;22460;-85
2022/05/05 07:32:15;;;;;;;14.40;6.60;;;;;;;23.05;50.72;99163.10;109197;1280;22466;-85
2022/05/05 07:34:43;;;;;;;11.60;6.30;;;;;;;23.34;50.72;99167.14;109214;1280;22381;-86
2022/05/05 07:37:10;;;;;;;12.30;5.90;;;;;;;23.43;49.65;99170.38;108982;1280;22543;-84
2022/05/05 07:39:37;;;;;;;12.60;6.60;;;;;;;22.96;49.04;99171.52;108759;1281;22576;-84
2022/05/05 07:42:04;;;;;;;13.50;6.10;;;;;;;22.87;49.93;99172.95;108766;1281;22227;-85
2022/05/05 07:44:32;;;;;;;10.20;5.40;;;;;;;22.97;49.99;99173.98;109002;1281;22703;-85
2022/05/05 07:46:59;;;;;;;11.00;5.60;;;;;;;23.03;49.78;99179.50;109204;1280;22482;-85
2022/05/05 07:49:26;;;;;;;11.10;5.60;;;;;;;22.98;49.17;99177.36;108831;1281;22597;-85
2022/05/05 07:51:53;;;;;;;14.40;5.90;;;;;;;22.75;49.28;99177.48;109191;1281;22178;-86
2022/05/05 07:54:35;;;;;;;13.50;7.00;;;;;;;22.92;49.59;99182.60;108970;1281;22492;-85
2022/05/05 07:57:06;;;;;;;11.70;6.60;;;;;;;23.29;49.57;99188.78;108870;1281;22386;-84
2022/05/05 07:59:33;;;;;;;11.60;6.10;;;;;;;23.19;48.93;99184.41;108776;1281;23091;-85
2022/05/05 08:02:00;;;;;;;12.50;6.00;;;;;;;23.32;49.28;99186.61;109043;1280;22245;-85
2022/05/05 08:04:33;;;;;;;11.40;5.10;;;;;;;23.56;49.39;99181.88;108841;1281;24035;-86
2022/05/05 08:07:03;;;;;;;13.00;5.80;;;;;;;23.76;48.98;99182.98;108724;1281;23195;-86
2022/05/05 08:09:30;;;;;;;10.80;5.00;;;;;;;23.95;49.27;99179.55;108773;1280;22507;-84
2022/05/05 08:11:59;;;;;;;8.20;4.30;;;;;;;24.24;48.93;99185.64;109014;1281;23119;-86
2022/05/05 08:14:27;;;;;;;9.00;4.60;;;;;;;24.38;48.66;99183.19;108706;1280;22519;-85
2022/05/05 08:16:55;;;;;;;11.00;4.40;;;;;;;24.66;48.79;99188.14;108551;1280;22382;-86
2022/05/05 08:19:23;;;;;;;14.80;4.90;;;;;;;24.74;48.31;99181.68;108773;1280;22609;-85
2022/05/05 08:21:52;;;;;;;9.90;4.70;;;;;;;24.87;48.42;99186.69;108766;1281;23200;-86
2022/05/05 08:29:55;;;;;;;11.60;3.80;;;;;;;24.30;47.64;99177.73;109020;1281;22490;-87
2022/05/05 08:32:22;;;;;;;7.50;4.20;;;;;;;24.09;47.55;99178.93;109013;1281;22517;-86
2022/05/05 08:34:50;;;;;;;7.50;4.30;;;;;;;24.10;47.52;99181.05;108983;1281;22569;-85
2022/05/05 08:37:19;;;;;;;9.20;5.00;;;;;;;24.18;47.69;99185.71;109200;1280;23206;-85
2022/05/05 08:39:57;;;;;;;10.30;4.90;;;;;;;24.08;46.87;99180.48;108740;1281;22347;-86
2022/05/05 08:42:27;;;;;;;11.50;4.60;;;;;;;24.05;47.41;99176.46;109223;1278;23424;-85
2022/05/05 08:44:54;;;;;;;11.40;3.80;;;;;;;24.21;47.34;99180.04;108749;1281;22591;-86
2022/05/05 08:47:34;;;;;;;7.70;4.30;;;;;;;24.33;47.60;99178.54;108998;1281;23276;-88
2022/05/05 08:50:11;;;;;;;8.90;3.90;;;;;;;24.66;47.53;99178.35;109067;1281;22417;-87
2022/05/05 08:52:49;;;;;;;9.90;4.10;;;;;;;24.95;47.33;99181.05;109039;1281;22417;-86
2022/05/05 08:55:36;;;;;;;11.30;4.80;;;;;;;25.08;47.00;99180.23;108995;1281;22451;-87
2022/05/05 08:58:14;;;;;;;8.60;4.80;;;;;;;25.21;46.99;99182.45;109222;1280;23166;-86
2022/05/05 09:00:42;;;;;;;9.30;4.60;;;;;;;25.08;46.41;99174.63;109095;1280;22427;-86
2022/05/05 09:03:26;;;;;;;;;;;;;;;;;;;;;
2022/05/05 09:06:08;;;;;;;10.50;4.50;;;;;;;24.99;46.00;99179.86;109249;1280;22979;-86
2022/05/05 09:08:46;;;;;;;10.30;4.70;;;;;;;24.53;45.93;99183.50;108805;1281;22422;-85
2022/05/05 09:11:30;;;;;;;9.40;4.50;;;;;;;24.56;46.55;99187.42;108749;1281;22488;-85
2022/05/05 09:14:15;;;;;;;10.20;4.80;;;;;;;24.93;46.46;99185.23;109048;1279;22497;-86
2022/05/05 09:16:54;;;;;;;9.70;5.20;;;;;;;25.18;46.48;99183.06;109226;1280;22414;-88
2022/05/05 09:19:49;;;;;;;8.20;4.90;;;;;;;25.44;46.12;99178.70;109065;1281;22435;-86
2022/05/05 09:22:24;;;;;;;12.70;5.60;;;;;;;25.86;46.15;99184.90;108545;1285;22523;-86
2022/05/05 09:25:02;;;;;;;12.90;5.10;;;;;;;26.13;45.82;99189.53;108597;1284;23124;-86
2022/05/05 09:27:43;;;;;;;9.60;5.30;;;;;;;26.38;44.59;99191.52;108634;1284;22555;-85
2022/05/05 09:30:34;;;;;;;;;;;;;;;;;;;;;
2022/05/05 09:33:04;;;;;;;9.20;5.30;;;;;;;25.67;44.32;99182.52;108515;1285;22340;-85
2022/05/05 09:36:02;;;;;;;9.50;5.40;;;;;;;25.32;44.19;99181.33;108629;1284;22522;-89
2022/05/05 09:39:03;;;;;;;9.00;4.80;;;;;;;25.36;44.62;99180.61;108628;1285;23289;-85
2022/05/05 09:41:54;;;;;;;9.10;4.80;;;;;;;25.11;43.73;99185.66;108332;1285;22439;-86
2022/05/05 09:44:43;;;;;;;11.60;5.70;;;;;;;24.81;44.55;99187.49;108581;1285;22479;-85
2022/05/05 09:47:16;;;;;;;8.70;5.00;;;;;;;25.09;44.95;99186.71;108606;1285;22498;-86
2022/05/05 09:49:57;;;;;;;9.10;5.10;;;;;;;25.44;44.97;99183.00;108532;1285;23070;-87
2022/05/05 09:58:17;;;;;;;9.10;4.80;;;;;;;25.56;43.84;99178.47;109049;1279;23156;-84
2022/05/05 10:00:58;;;;;;;8.60;5.30;;;;;;;25.31;43.74;99187.09;108794;1281;23138;-85
2022/05/05 10:06:23;;;;;;;17.30;5.90;;;;;;;24.88;43.69;99183.84;108874;1281;22604;-85
2022/05/05 10:08:53;;;;;;;15.10;5.30;;;;;;;24.89;43.45;99188.02;108993;1281;22472;-84
2022/05/05 10:11:22;;;;;;;13.20;5.60;;;;;;;24.53;42.58;99186.70;108784;1281;22172;-85
2022/05/05 10:13:50;;;;;;;14.20;4.90;;;;;;;24.15;43.04;99187.11;108949;1281;22259;-85
2022/05/05 10:16:20;;;;;;;12.80;5.90;;;;;;;24.19;43.61;99184.45;109205;1280;22269;-86
2022/05/05 10:18:47;;;;;;;14.80;6.40;;;;;;;24.35;43.45;99181.77;108812;1281;22212;-85
2022/05/05 10:21:35;;;;;;;13.90;7.00;;;;;;;24.26;42.87;99181.59;109278;1280;22972;-85
2022/05/05 10:24:12;;;;;;;13.50;7.50;;;;;;;24.05;43.26;99178.60;109301;1280;22378;-86
2022/05/05 10:26:39;;;;;;;19.50;9.70;;;;;;;24.05;42.55;99181.96;109002;1281;22509;-85
2022/05/05 10:29:34;;;;;;;13.00;6.90;;;;;;;24.01;42.77;99170.59;109315;1280;22537;-85
2022/05/05 10:32:20;;;;;;;13.50;5.90;;;;;;;24.05;42.63;99171.92;109308;1280;22761;-85
2022/05/05 10:35:19;;;;;;;18.30;9.00;;;;;;;24.09;42.77;99171.80;109010;1281;22401;-85
2022/05/05 10:37:46;;;;;;;15.00;7.20;;;;;;;24.06;42.48;99177.10;108894;1281;24648;-86
2022/05/05 10:40:13;;;;;;;12.90;6.60;;;;;;;23.96;43.07;99172.89;108768;1281;22471;-86
2022/05/05 10:42:43;;;;;;;13.60;6.90;;;;;;;23.94;43.03;99181.88;108999;1281;22412;-85
2022/05/05 10:45:16;;;;;;;11.30;6.30;;;;;;;23.76;42.79;99172.80;109005;1281;22462;-85
2022/05/05 10:47:52;;;;;;;10.60;6.30;;;;;;;23.57;42.80;99174.10;109292;1280;22534;-85
2022/05/05 10:50:31;;;;;;;9.90;6.30;;;;;;;23.51;42.82;99182.34;109296;1280;22182;-85
2022/05/05 10:52:59;;;;;;;14.60;6.70;;;;;;;23.35;42.16;99186.98;108997;1281;22385;-85
2022/05/05 10:55:41;;;;;;;13.50;6.90;;;;;;;23.01;42.64;99189.02;109010;1281;22383;-85
2022/05/05 10:58:10;;;;;;;12.10;6.60;;;;;;;22.67;42.85;99198.52;109294;1281;22412;-85
2022/05/05 11:00:42;;;;;;;15.30;7.00;;;;;;;22.41;43.12;99193.34;108999;1281;23117;-84
2022/05/05 11:03:09;;;;;;;14.60;7.40;;;;;;;22.20;43.29;99202.52;109290;1280;22377;-85
2022/05/05 11:05:36;;;;;;;12.50;7.50;;;;;;;21.91;43.30;99203.09;109308;1279;22388;-84
2022/05/05 11:08:22;;;;;;;19.90;8.40;;;;;;;21.48;43.72;99212.73;108800;1281;22353;-85
2022/05/05 11:13:46;;;;;;;15.70;7.00;;;;;;;20.06;44.68;99227.75;108818;1280;22779;-86
2022/05/05 11:22:28;;;;;;;9.30;5.60;;;;;;;18.03;46.41;99243.77;109000;1281;22375;-88
2022/05/05 11:25:01;;;;;;;10.60;5.50;;;;;;;17.44;47.95;99251.84;108710;1283;22467;-90
2022/05/05 11:28:00;;;;;;;7.50;4.20;;;;;;;16.92;49.09;99251.09;108761;1281;22562;-87
2022/05/05 11:30:30;;;;;;;8.20;4.30;;;;;;;16.47;48.18;99253.75;109060;1280;22404;-84
2022/05/05 11:33:00;;;;;;;8.30;4.00;;;;;;;16.20;48.74;99260.34;108748;1281;23025;-86
2022/05/05 11:35:28;;;;;;;9.00;4.50;;;;;;;15.99;48.39;99253.50;108906;1283;22443;-86
2022/05/05 11:37:59;;;;;;;8.60;4.20;;;;;;;15.87;48.96;99260.34;108928;1281;23192;-88
2022/05/05 11:40:29;;;;;;;8.90;4.50;;;;;;;15.71;49.14;99261.24;106289;1281;3223747;-90
2022/05/05 11:46:01;;;;;;;8.00;3.60;;;;;;;15.39;50.59;99263.79;108936;1281;22352;-86
2022/05/05 11:48:28;;;;;;;8.70;4.20;;;;;;;15.29;51.51;99274.52;108749;1281;22367;-88
2022/05/05 11:50:58;;;;;;;7.80;3.20;;;;;;;15.17;51.21;99274.69;108786;1281;22466;-85
2022/05/05 11:53:29;;;;;;;9.80;4.30;;;;;;;15.09;51.23;99278.24;109090;1280;22422;-89
2022/05/05 11:55:56;;;;;;;8.10;3.90;;;;;;;14.99;50.51;99282.18;108667;1281;22438;-86
2022/05/05 12:03:59;;;;;;;8.10;3.80;;;;;;;14.77;52.07;99293.90;108831;1280;22500;-88
2022/05/05 12:06:28;;;;;;;7.50;3.20;;;;;;;14.67;51.57;99294.58;108721;1281;22508;-88
2022/05/05 12:09:01;;;;;;;6.70;3.00;;;;;;;14.63;52.26;99292.59;108766;1281;22480;-86
2022/05/05 12:11:29;;;;;;;6.90;2.80;;;;;;;14.60;51.81;99289.23;108754;1281;22506;-87
2022/05/05 12:14:06;;;;;;;7.00;3.00;;;;;;;14.56;51.58;99290.88;108760;1281;22587;-87
2022/05/05 12:16:38;;;;;;;6.50;3.60;;;;;;;14.52;51.35;99296.39;108925;1281;22190;-86
2022/05/05 12:19:17;;;;;;;7.90;3.70;;;;;;;14.49;51.75;99295.77;108897;1281;22469;-86
2022/05/05 12:21:56;;;;;;;10.00;3.10;;;;;;;14.47;51.72;99304.17;108746;1281;23160;-87
2022/05/05 12:24:24;;;;;;;7.30;2.90;;;;;;;14.49;51.83;99306.71;108907;1281;22384;-86
2022/05/05 12:27:13;;;;;;;5.70;2.60;;;;;;;14.56;51.92;99305.91;108878;1281;22450;-86